Latest Weather Observations for Lameroo AWS

IDS60801

Issued at 5:31 pm CST Thursday 30 July 2015 (issued every 30 minutes, with the page automatically refreshed every 10 minutes)

About weather observations | Map of weather stations | Latest weather observations for SA | Other Formats
Station Details ID: 025562 Name: AUSTIN PLAINS Lat: -35.38 Lon: 140.54 Height: 110.08 m
Data from the previous 72 hours. | See also: Recent months at Lameroo AWS
Date/Time
CST
Temp
°C
App
Temp
°C
Dew
Point
Rel
Hum
%
Delta-T
°C
Wind Press
QNH
hPa
Press
MSL
hPa
Rain
since 9 am
mm
Dir
 
Spd
km/h
Gust
km/h
Spd
kts
Gust
kts
30/05:30pm 13.0 8.6 7.2 68 2.8 W 20 26 11 14 1017.6 1017.8 0.0
30/05:00pm 13.7 8.2 5.8 59 3.8 W 24 41 13 22 1017.2 1017.4 0.0
30/04:30pm 14.4 8.1 5.7 56 4.1 W 28 39 15 21 1016.8 1017.0 0.0
30/04:00pm 15.4 8.3 5.3 51 4.8 WNW 32 44 17 24 1016.3 1016.4 0.0
30/03:30pm 15.9 8.2 5.2 49 5.1 WNW 35 46 19 25 1015.9 1016.0 0.0
30/03:00pm 16.5 9.2 5.5 48 5.3 WNW 33 50 18 27 1016.0 1016.1 0.0
30/02:54pm 15.7 8.7 4.1 46 5.4 WNW 30 50 16 27 1015.9 1016.0 0.0
30/02:30pm 15.0 7.4 3.8 47 5.2 WNW 33 43 18 23 1016.2 1016.3 0.0
30/02:00pm 15.2 7.5 2.4 42 5.7 WNW 32 44 17 24 1016.3 1016.4 0.0
30/01:30pm 14.6 8.5 4.9 52 4.6 NW 26 33 14 18 1016.2 1016.3 0.0
30/01:00pm 13.8 6.7 3.6 50 4.6 NNW 30 39 16 21 1016.5 1016.6 0.0
30/12:30pm 12.9 7.4 4.1 55 4.0 NNW 22 33 12 18 1017.1 1017.3 0.0
30/12:00pm 11.6 6.1 4.1 60 3.4 NNW 22 35 12 19 1017.8 1018.0 0.0
30/11:30am 11.3 6.9 5.0 65 2.9 N 17 24 9 13 1018.4 1018.6 0.0
30/11:00am 10.3 3.6 3.8 64 2.9 N 28 33 15 18 1018.2 1018.4 0.0
30/10:30am 8.9 2.9 3.5 69 2.3 N 24 32 13 17 1018.6 1018.8 0.0
30/10:00am 8.4 2.4 3.5 71 2.1 N 24 33 13 18 1018.8 1019.0 0.0
30/09:30am 7.5 1.6 3.7 77 1.6 NNE 24 32 13 17 1019.3 1019.5 0.0
30/09:00am 6.9 1.9 3.7 80 1.4 N 19 24 10 13 1020.1 1020.3 0.4
30/08:30am 6.6 2.0 3.6 81 1.3 N 17 22 9 12 1020.5 1020.7 0.2
30/08:00am 6.7 0.3 3.0 77 1.6 N 26 32 14 17 1020.3 1020.5 0.0
30/07:30am 7.2 1.4 2.1 70 2.1 N 22 28 12 15 1019.9 1020.1 0.0
30/07:00am 6.6 1.2 2.3 74 1.8 N 20 26 11 14 1019.8 1020.0 0.0
30/06:30am 6.1 0.7 2.2 76 1.6 N 20 26 11 14 1019.8 1020.0 0.0
30/06:00am 6.4 1.0 2.5 76 1.6 N 20 28 11 15 1019.8 1020.0 0.0
30/05:30am 6.6 1.4 2.7 76 1.6 N 19 24 10 13 1020.2 1020.4 0.0
30/05:00am 6.5 1.7 2.8 77 1.5 N 17 20 9 11 1021.1 1021.3 0.0
30/04:30am 6.7 1.9 2.6 75 1.7 N 17 20 9 11 1021.2 1021.4 0.0
30/04:00am 6.3 1.5 2.8 78 1.5 N 17 20 9 11 1021.3 1021.5 0.0
30/03:30am 5.9 2.7 2.9 81 1.2 NNE 9 13 5 7 1021.6 1021.8 0.0
30/03:00am 5.3 1.6 2.5 82 1.1 NNE 11 15 6 8 1022.1 1022.3 0.0
30/02:30am 5.3 0.9 2.5 82 1.1 N 15 20 8 11 1022.6 1022.8 0.0
30/02:00am 4.2 0.1 2.2 87 0.8 N 13 17 7 9 1022.9 1023.1 0.0
30/01:30am 4.1 -0.4 2.1 87 0.8 N 15 19 8 10 1023.0 1023.2 0.0
30/01:00am 4.8 -0.4 2.3 84 1.0 NNE 19 22 10 12 1023.0 1023.2 0.0
30/12:30am 5.2 0.4 2.4 82 1.1 N 17 20 9 11 1023.8 1023.9 0.0
30/12:00am 5.4 0.2 2.6 82 1.1 NNE 19 20 10 11 1024.0 1024.1 0.0
 
Date/Time
CST
Temp
°C
App
Temp
°C
Dew
Point
Rel
Hum
%
Delta-T
°C
Wind Press
QNH
hPa
Press
MSL
hPa
Rain
since 9 am
mm
Dir
 
Spd
km/h
Gust
km/h
Spd
kts
Gust
kts
29/11:30pm 5.9 0.5 2.7 80 1.3 N 20 22 11 12 1024.5 1024.7 0.0
29/11:00pm 5.3 0.5 2.8 84 1.0 NNE 17 19 9 10 1024.9 1025.1 0.0
29/10:30pm 6.4 1.7 3.2 80 1.3 N 17 22 9 12 1025.3 1025.5 0.0
29/10:00pm 6.6 2.0 3.6 81 1.3 NNE 17 22 9 12 1025.6 1025.8 0.0
29/09:30pm 6.7 2.4 3.5 80 1.4 NNE 15 19 8 10 1026.0 1026.2 0.0
29/09:00pm 6.9 2.6 3.5 79 1.4 NNE 15 19 8 10 1026.2 1026.4 0.0
29/08:30pm 8.0 3.4 3.7 74 1.8 N 17 22 9 12 1026.5 1026.7 0.0
29/08:00pm 8.4 3.9 4.0 74 1.9 NNE 17 20 9 11 1026.4 1026.6 0.0
29/07:30pm 8.6 4.4 3.8 72 2.1 N 15 20 8 11 1026.8 1027.0 0.0
29/07:00pm 8.6 4.8 4.0 73 2.0 N 13 17 7 9 1026.6 1026.8 0.0
29/06:30pm 8.9 4.0 3.9 71 2.2 N 19 24 10 13 1026.4 1026.6 0.0
29/06:00pm 8.9 4.7 3.9 71 2.2 N 15 20 8 11 1026.4 1026.6 0.0
29/05:30pm 9.5 5.3 3.9 68 2.4 N 15 17 8 9 1026.6 1026.8 0.0
29/05:00pm 10.3 6.6 4.7 68 2.5 N 13 15 7 8 1026.8 1027.0 0.0
29/04:30pm 10.9 7.3 4.8 66 2.8 N 13 17 7 9 1026.5 1026.7 0.0
29/04:00pm 11.1 7.0 4.6 64 3.0 N 15 20 8 11 1027.0 1027.2 0.0
29/03:30pm 11.5 6.4 4.0 60 3.3 NNW 20 28 11 15 1027.6 1027.8 0.0
29/03:00pm 11.4 5.5 3.9 60 3.3 NNW 24 30 13 16 1027.4 1027.6 0.0
29/02:30pm 12.4 7.4 4.4 58 3.6 NNW 20 30 11 16 1027.5 1027.7 0.0
29/02:00pm 11.5 5.6 3.8 59 3.4 N 24 32 13 17 1027.8 1028.0 0.0
29/01:30pm 11.2 4.9 3.7 60 3.3 N 26 33 14 18 1027.8 1028.0 0.0
29/01:00pm 11.2 5.5 4.7 64 3.0 N 24 32 13 17 1028.8 1029.0 0.0
29/12:30pm 11.3 5.9 4.5 63 3.1 NNW 22 30 12 16 1029.9 1030.1 0.0
29/12:00pm 10.9 5.5 4.4 64 2.9 N 22 28 12 15 1030.2 1030.4 0.0
29/11:30am 10.5 5.7 4.6 67 2.6 N 19 24 10 13 1031.3 1031.5 0.0
29/11:00am 10.0 5.6 4.8 70 2.3 N 17 24 9 13 1031.9 1032.2 0.0
29/10:30am 9.8 5.3 4.4 69 2.4 N 17 22 9 12 1032.0 1032.3 0.0
29/10:00am 8.7 4.2 4.3 74 1.9 N 17 24 9 13 1032.5 1032.8 0.0
29/09:30am 8.3 3.9 4.5 77 1.7 NNW 17 22 9 12 1032.8 1033.0 0.0
29/09:00am 8.0 4.3 4.6 79 1.5 N 13 17 7 9 1033.1 1033.3 0.0
29/08:30am 6.8 3.5 4.6 86 1.0 N 11 15 6 8 1032.7 1032.9 0.0
29/08:00am 6.8 2.3 4.3 84 1.1 N 17 20 9 11 1031.9 1032.2 0.0
29/07:30am 6.5 2.1 4.5 87 0.9 NNE 17 22 9 12 1031.5 1031.7 0.0
29/07:00am 6.2 2.9 4.4 88 0.8 N 11 15 6 8 1032.4 1032.7 0.0
29/06:30am 5.7 2.8 4.5 92 0.5 N 9 11 5 6 1032.3 1032.6 0.0
29/06:00am 5.5 2.9 4.0 90 0.6 NNW 7 9 4 5 1032.1 1032.4 0.0
29/05:30am 6.1 3.2 4.6 90 0.6 N 9 11 5 6 1032.0 1032.3 0.0
29/05:00am 5.7 2.3 3.9 88 0.8 NNE 11 13 6 7 1031.6 1031.8 0.0
29/04:30am 6.5 3.6 4.7 88 0.8 N 9 13 5 7 1031.5 1031.7 0.0
29/04:00am 6.9 3.3 5.1 88 0.8 NNE 13 15 7 8 1031.8 1032.1 0.0
29/03:30am 5.8 2.4 4.0 88 0.8 NNE 11 13 6 7 1032.0 1032.3 0.0
29/03:00am 6.8 3.1 4.5 85 1.0 N 13 15 7 8 1032.1 1032.4 0.0
29/02:30am 6.9 4.3 4.4 84 1.1 N 7 11 4 6 1032.4 1032.7 0.0
29/02:00am 7.3 4.1 5.3 87 0.9 NNE 11 15 6 8 1032.4 1032.7 0.0
29/01:30am 8.0 5.4 6.3 89 0.8 N 9 11 5 6 1033.1 1033.3 0.0
29/01:00am 7.4 4.8 6.0 91 0.6 NNE 9 11 5 6 1032.9 1033.1 0.0
29/12:30am 7.1 5.0 5.6 90 0.7 N 6 7 3 4 1033.4 1033.6 0.0
29/12:00am 7.3 4.6 5.4 88 0.8 NNE 9 9 5 5 1033.5 1033.7 0.0
 
Date/Time
CST
Temp
°C
App
Temp
°C
Dew
Point
Rel
Hum
%
Delta-T
°C
Wind Press
QNH
hPa
Press
MSL
hPa
Rain
since 9 am
mm
Dir
 
Spd
km/h
Gust
km/h
Spd
kts
Gust
kts
28/11:30pm 7.8 5.7 5.6 86 1.0 NNE 6 7 3 4 1033.9 1034.1 0.0
28/11:00pm 8.6 6.6 6.2 85 1.1 NNE 6 6 3 3 1034.1 1034.3 0.0
28/10:30pm 8.9 7.3 6.3 84 1.2 NNE 4 6 2 3 1034.3 1034.5 0.0
28/10:00pm 9.3 7.3 6.2 81 1.4 N 6 7 3 4 1034.2 1034.4 0.0
28/09:30pm 9.4 7.8 6.5 82 1.3 N 4 6 2 3 1034.5 1034.7 0.0
28/09:00pm 10.0 8.9 6.7 80 1.5 NE 2 4 1 2 1034.5 1034.7 0.0
28/08:30pm 10.0 9.2 6.7 80 1.5 CALM 0 0 0 0 1034.8 1035.0 0.0
28/08:00pm 9.8 8.7 7.1 83 1.3 ENE 2 2 1 1 1035.0 1035.2 0.0
28/07:30pm 9.9 8.4 6.8 81 1.4 ENE 4 6 2 3 1035.0 1035.2 0.0
28/07:00pm 10.7 9.9 6.5 75 2.0 CALM 0 0 0 0 1034.9 1035.1 0.0
28/06:30pm 10.7 8.8 6.8 77 1.8 NNE 6 11 3 6 1034.9 1035.1 0.0
28/06:00pm 10.0 8.3 7.6 85 1.1 NNW 6 7 3 4 1034.6 1034.8 0.0
28/05:30pm 10.5 7.9 7.6 82 1.4 NNW 11 13 6 7 1034.6 1034.8 0.0
28/05:00pm 11.0 9.4 8.1 82 1.4 NW 6 7 3 4 1034.7 1034.9 0.0
28/04:30pm 11.5 9.8 7.6 77 1.9 NW 6 7 3 4 1034.3 1034.5 0.0
28/04:00pm 11.4 9.5 7.7 78 1.8 NW 7 7 4 4 1034.4 1034.6 0.0
28/03:30pm 11.6 9.8 7.1 74 2.1 WNW 6 9 3 5 1034.5 1034.7 0.0
28/03:00pm 12.3 9.6 7.2 71 2.4 NW 11 17 6 9 1034.5 1034.7 0.0
28/02:30pm 13.0 10.2 6.8 66 3.0 WNW 11 13 6 7 1034.6 1034.8 0.0
28/02:00pm 12.9 11.5 7.1 68 2.8 WNW 4 9 2 5 1034.8 1035.0 0.0
28/01:30pm 12.1 10.0 6.6 69 2.6 W 7 11 4 6 1035.3 1035.5 0.0
28/01:00pm 12.6 10.4 7.7 72 2.4 WNW 9 13 5 7 1035.6 1035.8 0.0
28/12:30pm 12.2 9.7 6.7 69 2.6 W 9 11 5 6 1036.2 1036.4 0.0
28/12:00pm 12.1 9.7 7.0 71 2.4 WSW 9 15 5 8 1036.6 1036.8 0.0
28/11:30am 11.9 10.0 7.6 75 2.1 WSW 7 13 4 7 1037.1 1037.3 0.0
28/11:00am 11.4 8.4 7.7 78 1.8 W 13 17 7 9 1037.5 1037.7 0.0
28/10:30am 10.4 7.9 8.0 85 1.2 W 11 15 6 8 1037.5 1037.7 0.0
28/10:00am 9.3 7.1 7.7 90 0.8 W 9 11 5 6 1037.3 1037.5 0.0
28/09:30am 8.0 5.5 8.0 100 0.0 WSW 11 13 6 7 1037.4 1037.6 0.0
28/09:00am 6.7 3.8 6.7 100 0.0 W 11 13 6 7 1037.5 1037.7 0.4
28/08:30am 5.8 2.8 5.8 100 0.0 W 11 15 6 8 1037.4 1037.6 0.4
28/08:00am 4.6 1.7 4.6 100 0.0 WNW 9 13 5 7 1037.1 1037.3 0.4
28/07:30am 3.1 - - - - WNW 11 13 6 7 1037.0 1037.2 0.4
28/07:00am 2.1 -1.6 2.1 100 0.0 WNW 11 13 6 7 1036.7 1036.9 0.4
28/06:30am 2.0 -1.0 2.0 100 0.0 WNW 7 9 4 5 1036.7 1036.9 0.4
28/06:00am 3.2 0.4 3.2 100 0.0 WNW 7 9 4 5 1036.3 1036.5 0.4
28/05:30am 4.2 2.2 4.2 100 0.0 WNW 4 6 2 3 1036.0 1036.2 0.4
28/05:00am 3.5 1.0 3.5 100 0.0 W 6 6 3 3 1035.8 1036.0 0.4
28/04:30am 3.2 0.6 3.2 100 0.0 WNW 6 7 3 4 1035.6 1035.8 0.4
28/04:00am 3.3 0.5 3.3 100 0.0 NW 7 7 4 4 1035.6 1035.8 0.4
28/03:30am 2.5 -0.2 2.5 100 0.0 WNW 6 6 3 3 1035.8 1036.0 0.4
28/03:00am 3.5 0.8 3.5 100 0.0 W 7 9 4 5 1035.5 1035.7 0.4
28/02:30am 3.9 1.8 3.9 100 0.0 W 4 6 2 3 1035.6 1035.8 0.4
28/02:00am 4.8 2.3 4.8 100 0.0 WSW 7 11 4 6 1035.7 1035.9 0.4
28/01:30am 4.5 1.6 4.5 100 0.0 WSW 9 13 5 7 1035.6 1035.8 0.4
28/01:00am 5.3 2.1 5.3 100 0.0 W 11 13 6 7 1035.4 1035.6 0.4
28/12:30am 5.0 1.8 5.0 100 0.0 W 11 13 6 7 1035.3 1035.5 0.4
28/12:00am 3.6 0.1 3.6 100 0.0 W 11 11 6 6 1035.4 1035.6 0.4
 
Date/Time
CST
Temp
°C
App
Temp
°C
Dew
Point
Rel
Hum
%
Delta-T
°C
Wind Press
QNH
hPa
Press
MSL
hPa
Rain
since 9 am
mm
Dir
 
Spd
km/h
Gust
km/h
Spd
kts
Gust
kts
27/11:30pm 4.4 1.1 4.4 100 0.0 W 11 11 6 6 1035.2 1035.4 0.4
27/11:00pm 3.7 0.2 3.7 100 0.0 W 11 13 6 7 1035.2 1035.4 0.4
27/10:30pm 3.4 -0.1 3.4 100 0.0 WNW 11 13 6 7 1035.4 1035.6 0.4
27/10:00pm 3.1 -0.1 3.1 100 0.0 WNW 9 9 5 5 1035.3 1035.5 0.4
27/09:30pm 3.0 -0.6 3.0 100 0.0 WNW 11 13 6 7 1035.2 1035.4 0.4
27/09:00pm 4.4 0.9 3.4 93 0.4 WSW 11 13 6 7 1035.1 1035.3 0.4
27/08:30pm 5.1 1.3 3.9 92 0.5 WSW 13 13 7 7 1035.1 1035.3 0.4
27/08:00pm 5.6 2.0 5.2 97 0.2 WSW 13 15 7 8 1035.0 1035.2 0.4
27/07:30pm 5.4 1.7 4.5 94 0.4 WSW 13 15 7 8 1034.9 1035.1 0.4
27/07:00pm 6.0 2.7 4.6 91 0.6 WSW 11 13 6 7 1034.7 1034.9 0.4
27/06:30pm 7.3 3.4 5.4 88 0.8 WSW 15 17 8 9 1034.4 1034.6 0.4
27/06:00pm 7.8 4.3 5.4 85 1.1 WSW 13 15 7 8 1034.2 1034.4 0.4

Other Formats:

Comma delimited format used in spreadsheet applications
http://www.bom.gov.au/fwo/IDS60801/IDS60801.94690.axf

JavaScript Object Notation format (JSON) in row-major order
http://www.bom.gov.au/fwo/IDS60801/IDS60801.94690.json